Mount Pleasant, South Carolina
Current Conditions -  °F | °C
As of 3:15 AM on Tuesday 21 Oct 2014 (Local Time) from KLRO Reporting Station
Broken Clouds Broken Clouds  
Wind Chill: 63°   Ceiling: 4000
Heat Index: 63°   Visibility: 8mi
Dew Point: 63°   Wind: 0mph
Humidity: 100%   Direction: NA
Pressure: 29.95"   Gusts: NA
Location:  32.8°N, 79.89°W
Report Text: KLRO 210715Z AUTO 00000KT 8SM BKN040 17/17 A2995 RMK AO2 PWINO PNO
Loading
Personal Weather Stations






























Interactive Weather Map
Tropical Storm Tracking
New forecast layout! Learn more

10-Day Weather Forecast

Advertisements
Track Severe Weather on mobile